Time;durP1;ratioP1;P1;durP2;ratioP2;P2;SDS_P1;SDS_P2;PMS_P1;PMS_P2;Temp;Humidity;BMP_temperature;BMP_pressure;BME280_temperature;BME280_humidity;BME280_pressure;Samples;Min_cycle;Max_cycle;Signal;HPM_P1;HPM_P2
2021/07/23 00:01:32;;;;;;;17.35;7.30;;;;;;;13.97;100.00;102024.66;5214865;28;20044;-80
2021/07/23 00:04:04;;;;;;;12.65;6.50;;;;;;;13.89;100.00;102028.13;5201028;28;20171;-80
2021/07/23 00:06:34;;;;;;;15.52;7.82;;;;;;;13.82;100.00;102028.94;5209541;28;20540;-80
2021/07/23 00:09:04;;;;;;;15.23;7.13;;;;;;;13.77;100.00;102023.19;5197598;28;20033;-80
2021/07/23 00:11:35;;;;;;;19.30;7.95;;;;;;;13.71;100.00;102019.28;5215205;28;20047;-79
2021/07/23 00:14:05;;;;;;;17.95;7.97;;;;;;;13.70;100.00;102021.13;5209839;28;20032;-80
2021/07/23 00:16:36;;;;;;;16.75;7.45;;;;;;;13.71;100.00;102017.41;5209671;28;20044;-80
2021/07/23 00:19:07;;;;;;;19.33;7.95;;;;;;;13.65;100.00;102015.34;5191587;28;20048;-79
2021/07/23 00:21:37;;;;;;;14.85;6.72;;;;;;;13.60;100.00;102019.50;5191210;28;20407;-80
2021/07/23 00:24:07;;;;;;;16.75;7.18;;;;;;;13.54;100.00;102023.69;5214468;28;20116;-80
2021/07/23 00:26:38;;;;;;;15.60;7.10;;;;;;;13.50;100.00;102011.50;5215390;28;20546;-80
2021/07/23 00:29:08;;;;;;;14.23;7.32;;;;;;;13.45;100.00;102013.84;5201199;28;20037;-80
2021/07/23 00:31:39;;;;;;;18.70;7.55;;;;;;;13.36;100.00;102010.25;5215932;28;20067;-80
2021/07/23 00:34:09;;;;;;;19.25;7.30;;;;;;;13.33;100.00;102005.16;5195723;28;20071;-80
2021/07/23 00:36:40;;;;;;;17.73;7.97;;;;;;;13.31;100.00;102006.34;5209624;28;20048;-80
2021/07/23 00:39:10;;;;;;;14.02;7.30;;;;;;;13.35;100.00;102010.38;5209796;28;20029;-80
2021/07/23 00:41:41;;;;;;;14.38;7.22;;;;;;;13.35;100.00;102007.69;5215420;28;20030;-80
2021/07/23 00:44:11;;;;;;;20.02;8.50;;;;;;;13.32;100.00;102005.34;5197729;28;20107;-80
2021/07/23 00:46:44;;;;;;;14.23;7.20;;;;;;;13.27;100.00;102007.66;5202409;28;20041;-80
2021/07/23 00:49:15;;;;;;;24.65;8.50;;;;;;;13.24;100.00;102008.78;5214351;28;20510;-80
2021/07/23 00:51:46;;;;;;;15.50;7.35;;;;;;;13.15;100.00;101999.78;5209749;28;20047;-80
2021/07/23 00:54:18;;;;;;;16.58;8.30;;;;;;;13.07;100.00;102002.38;5209186;28;20025;-80
2021/07/23 00:56:49;;;;;;;15.95;7.53;;;;;;;13.00;100.00;101997.75;5212835;28;20040;-80
2021/07/23 00:59:19;;;;;;;15.77;8.07;;;;;;;12.94;100.00;101993.84;5218274;28;20029;-80
2021/07/23 01:01:50;;;;;;;15.82;8.48;;;;;;;12.88;100.00;101994.47;5211173;28;20125;-80
2021/07/23 01:04:20;;;;;;;15.27;7.68;;;;;;;12.85;100.00;101994.75;5215573;28;20051;-80
2021/07/23 01:06:51;;;;;;;19.25;7.88;;;;;;;12.80;100.00;101991.66;5185142;28;20021;-80
2021/07/23 01:09:22;;;;;;;16.45;8.45;;;;;;;12.75;100.00;101994.84;5214230;28;20029;-80
2021/07/23 01:11:52;;;;;;;16.60;8.57;;;;;;;12.69;100.00;101984.66;5215282;28;20048;-81
2021/07/23 01:14:24;;;;;;;19.77;9.00;;;;;;;12.64;100.00;101981.59;5210596;28;20025;-80
2021/07/23 01:16:55;;;;;;;16.55;8.70;;;;;;;12.60;100.00;101991.84;5208773;28;20071;-80
2021/07/23 01:19:27;;;;;;;16.42;7.88;;;;;;;12.57;100.00;101986.75;5211278;28;20427;-80
2021/07/23 01:22:02;;;;;;;20.42;8.73;;;;;;;12.54;100.00;101980.81;5214646;28;20032;-80
2021/07/23 01:24:34;;;;;;;20.45;9.00;;;;;;;12.49;100.00;101980.41;5214001;28;20111;-80
2021/07/23 01:27:06;;;;;;;15.43;8.70;;;;;;;12.48;100.00;101978.72;5208862;28;20024;-80
2021/07/23 01:29:36;;;;;;;20.00;8.00;;;;;;;12.43;100.00;101980.00;5220646;28;20108;-80
2021/07/23 01:32:07;;;;;;;18.55;8.75;;;;;;;12.40;100.00;101976.81;5209612;28;20478;-80
2021/07/23 01:34:39;;;;;;;18.55;8.73;;;;;;;12.38;100.00;101981.47;5208919;28;20399;-80
2021/07/23 01:37:10;;;;;;;18.58;9.23;;;;;;;12.32;100.00;101977.53;5195985;28;20174;-80
2021/07/23 01:39:41;;;;;;;19.27;9.02;;;;;;;12.28;100.00;101973.44;5220980;28;20032;-80
2021/07/23 01:42:14;;;;;;;16.88;8.27;;;;;;;12.25;100.00;101978.28;5215617;28;20063;-80
2021/07/23 01:44:55;;;;;;;18.00;7.78;;;;;;;12.23;100.00;101970.34;5219328;28;20025;-80
2021/07/23 01:47:26;;;;;;;19.70;9.35;;;;;;;12.21;100.00;101969.69;5219357;28;20025;-80
2021/07/23 01:49:56;;;;;;;22.92;9.90;;;;;;;12.19;100.00;101969.81;5211583;28;20018;-80
2021/07/23 01:52:29;;;;;;;20.30;9.25;;;;;;;12.20;100.00;101973.38;5193894;28;20043;-80
2021/07/23 01:54:59;;;;;;;21.55;8.82;;;;;;;12.21;100.00;101976.91;5199280;28;20117;-80
2021/07/23 01:57:31;;;;;;;28.85;9.38;;;;;;;12.20;100.00;101978.75;5210509;28;20029;-80
2021/07/23 02:00:04;;;;;;;16.60;8.50;;;;;;;12.18;100.00;101967.28;5197119;28;20029;-80
2021/07/23 02:02:35;;;;;;;25.38;9.95;;;;;;;12.15;100.00;101963.06;5188226;28;20044;-81
2021/07/23 02:05:06;;;;;;;22.42;9.75;;;;;;;12.15;100.00;101964.91;5213894;28;20029;-80
2021/07/23 02:07:37;;;;;;;23.60;9.43;;;;;;;12.18;100.00;101973.50;5218946;28;20492;-80
2021/07/23 02:10:08;;;;;;;21.55;9.77;;;;;;;12.16;100.00;101974.66;5217446;28;20032;-80
2021/07/23 02:12:38;;;;;;;26.42;10.00;;;;;;;12.18;100.00;101970.81;5212469;28;20033;-80
2021/07/23 02:15:09;;;;;;;25.17;9.60;;;;;;;12.17;100.00;101963.75;5211793;28;20071;-80
2021/07/23 02:17:40;;;;;;;27.45;10.90;;;;;;;12.23;100.00;101964.13;5216963;28;20029;-80
2021/07/23 02:20:11;;;;;;;23.50;9.57;;;;;;;12.24;100.00;101969.34;5198760;28;20033;-80
2021/07/23 02:22:41;;;;;;;26.10;11.07;;;;;;;12.21;100.00;101966.16;5214793;28;20036;-80
2021/07/23 02:25:12;;;;;;;26.65;10.15;;;;;;;12.21;100.00;101963.44;5212054;28;20063;-80
2021/07/23 02:27:42;;;;;;;22.10;10.20;;;;;;;12.21;100.00;101969.69;5214236;28;20057;-80
2021/07/23 02:30:13;;;;;;;17.88;9.30;;;;;;;12.14;100.00;101964.03;5217153;28;20060;-80
2021/07/23 02:32:43;;;;;;;22.58;9.48;;;;;;;12.09;100.00;101960.94;5216262;28;20037;-80
2021/07/23 02:35:14;;;;;;;24.25;10.35;;;;;;;12.06;100.00;101971.16;5194448;28;20028;-80
2021/07/23 02:37:44;;;;;;;29.20;10.82;;;;;;;12.03;100.00;101966.91;5211884;28;20090;-80
2021/07/23 02:40:15;;;;;;;24.35;10.05;;;;;;;12.05;100.00;101958.69;5209921;28;20442;-80
2021/07/23 02:42:45;;;;;;;20.98;8.80;;;;;;;12.00;100.00;101958.28;5211156;28;20108;-80
2021/07/23 02:45:16;;;;;;;25.98;9.73;;;;;;;12.01;100.00;101960.84;5217923;28;20064;-80
2021/07/23 02:47:48;;;;;;;24.13;11.10;;;;;;;11.99;100.00;101960.13;5199546;28;20028;-80
2021/07/23 02:50:20;;;;;;;25.83;11.75;;;;;;;11.96;100.00;101957.75;5210145;28;20033;-80
2021/07/23 02:52:50;;;;;;;26.45;11.50;;;;;;;12.02;100.00;101957.16;5210104;28;20123;-80
2021/07/23 02:55:20;;;;;;;25.10;10.70;;;;;;;12.07;100.00;101956.72;5213978;28;20100;-80
2021/07/23 02:57:51;;;;;;;27.65;11.20;;;;;;;12.13;100.00;101951.56;5211057;28;20098;-80
2021/07/23 03:00:22;;;;;;;29.33;11.55;;;;;;;12.15;100.00;101946.91;5193500;28;20079;-80
2021/07/23 03:02:53;;;;;;;28.80;11.52;;;;;;;12.13;100.00;101942.66;5223426;28;20445;-80
2021/07/23 03:05:23;;;;;;;26.05;11.02;;;;;;;12.11;100.00;101948.19;5192679;28;20108;-80
2021/07/23 03:07:53;;;;;;;26.30;9.98;;;;;;;12.11;100.00;101940.13;5213229;28;20391;-80
2021/07/23 03:10:24;;;;;;;25.00;10.77;;;;;;;12.08;100.00;101939.56;5220316;28;20399;-80
2021/07/23 03:12:55;;;;;;;24.10;11.10;;;;;;;12.02;100.00;101938.34;5196673;28;20165;-80
2021/07/23 03:15:26;;;;;;;27.65;10.23;;;;;;;11.97;100.00;101934.41;5193660;28;20105;-80
2021/07/23 03:17:56;;;;;;;22.98;10.25;;;;;;;11.93;100.00;101932.00;5206506;28;20211;-81
2021/07/23 03:20:27;;;;;;;23.65;9.85;;;;;;;11.90;100.00;101936.84;5209239;28;20029;-80
2021/07/23 03:22:57;;;;;;;24.73;11.15;;;;;;;11.83;100.00;101931.19;5211288;28;20032;-81
2021/07/23 03:25:28;;;;;;;25.05;11.63;;;;;;;11.77;100.00;101937.13;5217151;28;20057;-81
2021/07/23 03:27:58;;;;;;;27.58;11.15;;;;;;;11.70;100.00;101929.78;5199291;28;20519;-80
2021/07/23 03:30:29;;;;;;;27.73;10.52;;;;;;;11.67;100.00;101934.47;5192692;28;20086;-80
2021/07/23 03:33:00;;;;;;;29.80;11.30;;;;;;;11.62;100.00;101931.38;5221860;28;20025;-81
2021/07/23 03:35:30;;;;;;;27.35;11.48;;;;;;;11.63;100.00;101926.84;5212863;28;20057;-81
2021/07/23 03:38:01;;;;;;;26.50;12.00;;;;;;;11.67;100.00;101926.41;5210475;28;20451;-80
2021/07/23 03:40:31;;;;;;;26.27;11.05;;;;;;;11.76;100.00;101927.38;5211876;28;20033;-80
2021/07/23 03:43:02;;;;;;;33.03;12.35;;;;;;;11.73;100.00;101926.81;5198749;28;20037;-80
2021/07/23 03:45:32;;;;;;;28.40;11.82;;;;;;;11.66;100.00;101921.19;5215345;28;20037;-80
2021/07/23 03:48:03;;;;;;;25.85;11.80;;;;;;;11.65;100.00;101920.34;5209868;28;20575;-80
2021/07/23 03:50:33;;;;;;;23.80;10.80;;;;;;;11.64;100.00;101912.41;5210046;28;20131;-80
2021/07/23 03:53:04;;;;;;;27.60;11.23;;;;;;;11.60;100.00;101913.72;5215934;28;20141;-80
2021/07/23 03:55:34;;;;;;;29.70;12.63;;;;;;;11.57;100.00;101919.38;5216570;28;20067;-81
2021/07/23 03:58:05;;;;;;;28.52;10.80;;;;;;;11.56;100.00;101921.22;5210873;28;20028;-81
2021/07/23 04:00:35;;;;;;;26.52;11.18;;;;;;;11.54;100.00;101917.81;5208508;28;20065;-81
2021/07/23 04:03:06;;;;;;;28.40;12.68;;;;;;;11.50;100.00;101920.97;5222544;28;20025;-80
2021/07/23 04:05:36;;;;;;;28.95;11.75;;;;;;;11.49;100.00;101922.78;5216895;28;20141;-80
2021/07/23 04:08:07;;;;;;;27.38;12.05;;;;;;;11.45;100.00;101918.72;5213854;28;20079;-81
2021/07/23 04:10:37;;;;;;;28.20;10.90;;;;;;;11.44;100.00;101922.38;5191364;28;20031;-80
2021/07/23 04:13:08;;;;;;;26.15;11.00;;;;;;;11.43;100.00;101922.53;5193498;28;20029;-80
2021/07/23 04:15:38;;;;;;;26.88;11.63;;;;;;;11.43;100.00;101926.06;5216342;28;20510;-81
2021/07/23 04:18:09;;;;;;;25.40;10.30;;;;;;;11.43;100.00;101931.44;5214917;28;20029;-80
2021/07/23 04:20:39;;;;;;;26.60;11.35;;;;;;;11.46;100.00;101923.09;5208610;28;20025;-80
2021/07/23 04:23:10;;;;;;;31.45;12.05;;;;;;;11.49;100.00;101917.41;5191623;28;20035;-80
2021/07/23 04:25:40;;;;;;;34.13;12.10;;;;;;;11.54;100.00;101922.34;5215354;28;20151;-80
2021/07/23 04:28:11;;;;;;;32.58;11.77;;;;;;;11.61;100.00;101918.94;5216245;28;20043;-80
2021/07/23 04:30:41;;;;;;;28.58;11.48;;;;;;;11.68;100.00;101917.34;5201322;28;20488;-81
2021/07/23 04:33:12;;;;;;;30.92;11.15;;;;;;;11.70;100.00;101917.22;5197620;28;20503;-80
2021/07/23 04:35:42;;;;;;;28.70;11.50;;;;;;;11.81;100.00;101921.56;5212637;28;20063;-80
2021/07/23 04:38:12;;;;;;;28.27;11.75;;;;;;;11.95;100.00;101915.75;5209389;28;20017;-80
2021/07/23 04:40:43;;;;;;;29.52;11.88;;;;;;;12.07;100.00;101908.31;5211120;28;20064;-80
2021/07/23 04:43:13;;;;;;;23.50;10.95;;;;;;;12.10;100.00;101911.56;5215225;28;20029;-80
2021/07/23 04:45:44;;;;;;;30.02;12.77;;;;;;;12.18;100.00;101908.09;5214243;28;20130;-81
2021/07/23 04:48:14;;;;;;;26.65;12.38;;;;;;;12.26;100.00;101910.88;5209133;28;20494;-80
2021/07/23 04:50:45;;;;;;;25.23;11.35;;;;;;;12.35;100.00;101909.97;5209047;28;20376;-81
2021/07/23 04:53:15;;;;;;;27.20;11.70;;;;;;;12.55;100.00;101896.34;5197403;28;20025;-80
2021/07/23 04:55:50;;;;;;;27.75;12.00;;;;;;;12.69;100.00;101903.91;5210532;28;20040;-80
2021/07/23 04:58:21;;;;;;;24.90;11.27;;;;;;;12.78;100.00;101902.97;5176201;28;20020;-80
2021/07/23 05:00:53;;;;;;;26.80;11.65;;;;;;;12.91;100.00;101898.03;5208335;28;20052;-80
2021/07/23 05:03:35;;;;;;;29.27;11.93;;;;;;;13.04;100.00;101897.63;5222410;28;20024;-80
2021/07/23 05:06:07;;;;;;;25.88;11.35;;;;;;;13.19;100.00;101901.44;5195878;28;20032;-80
2021/07/23 05:08:38;;;;;;;21.10;10.50;;;;;;;13.28;100.00;101899.69;5217251;28;20046;-81
2021/07/23 05:11:13;;;;;;;24.05;11.05;;;;;;;13.38;100.00;101889.66;5212798;28;20029;-81
2021/07/23 05:13:44;;;;;;;25.95;11.25;;;;;;;13.52;100.00;101898.16;5219437;28;20014;-80
2021/07/23 05:16:15;;;;;;;24.63;11.63;;;;;;;13.56;100.00;101892.28;5217333;28;20025;-81
2021/07/23 05:18:45;;;;;;;24.23;10.40;;;;;;;13.62;100.00;101891.63;5213019;28;20033;-81
2021/07/23 05:21:16;;;;;;;22.35;11.52;;;;;;;13.71;100.00;101892.53;5178606;28;20021;-80
2021/07/23 05:23:46;;;;;;;23.23;11.15;;;;;;;13.80;100.00;101893.38;5219117;28;20179;-80
2021/07/23 05:26:17;;;;;;;25.35;10.77;;;;;;;13.89;100.00;101887.88;5201455;28;20025;-81
2021/07/23 05:28:47;;;;;;;25.98;11.82;;;;;;;13.91;100.00;101887.72;5214289;28;20036;-80
2021/07/23 05:31:18;;;;;;;20.52;10.35;;;;;;;14.33;100.00;101892.22;5211736;28;20451;-80
2021/07/23 05:33:48;;;;;;;24.75;11.07;;;;;;;15.29;100.00;101893.28;5216767;28;20068;-80
2021/07/23 05:36:19;;;;;;;23.42;10.50;;;;;;;16.70;100.00;101896.03;5219168;28;20057;-80
2021/07/23 05:38:49;;;;;;;16.50;9.20;;;;;;;17.85;100.00;101903.94;5198840;28;20067;-80
2021/07/23 05:41:20;;;;;;;20.10;9.73;;;;;;;18.98;100.00;101897.06;5211298;28;20027;-81
2021/07/23 05:43:51;;;;;;;15.35;8.95;;;;;;;19.84;100.00;101900.38;5196552;28;20029;-81
2021/07/23 05:46:21;;;;;;;17.40;8.95;;;;;;;20.24;100.00;101897.81;5218799;28;20056;-81
2021/07/23 05:48:52;;;;;;;14.85;8.73;;;;;;;20.87;100.00;101898.38;5218817;28;20021;-80
2021/07/23 05:51:22;;;;;;;20.33;9.23;;;;;;;21.16;100.00;101899.84;5186787;28;20408;-81
2021/07/23 05:53:53;;;;;;;15.10;9.32;;;;;;;21.57;100.00;101909.69;5218297;28;20029;-81
2021/07/23 05:56:23;;;;;;;14.57;9.02;;;;;;;21.85;100.00;101912.97;5209344;28;20104;-81
2021/07/23 05:58:53;;;;;;;23.45;9.30;;;;;;;21.69;100.00;101921.66;5218508;28;20503;-81
2021/07/23 06:01:24;;;;;;;14.35;8.27;;;;;;;22.05;100.00;101920.25;5214117;28;20037;-81
2021/07/23 06:03:54;;;;;;;14.45;8.45;;;;;;;22.71;100.00;101917.19;5206091;28;20032;-81
2021/07/23 06:06:25;;;;;;;19.30;9.27;;;;;;;22.24;100.00;101922.09;5195018;28;20026;-81
2021/07/23 06:08:57;;;;;;;20.48;9.13;;;;;;;21.94;100.00;101922.63;5218446;28;20063;-81
2021/07/23 06:11:27;;;;;;;16.38;8.73;;;;;;;22.13;100.00;101925.50;5215848;28;20094;-81
2021/07/23 06:13:58;;;;;;;11.80;7.80;;;;;;;23.37;96.85;101926.78;5212771;28;20021;-81
2021/07/23 06:16:28;;;;;;;15.57;9.00;;;;;;;23.08;100.00;101922.84;5212422;28;20021;-81
2021/07/23 06:18:59;;;;;;;13.48;7.88;;;;;;;23.81;86.45;101930.38;5217293;28;20034;-81
2021/07/23 06:21:30;;;;;;;20.88;8.55;;;;;;;23.85;78.98;101934.34;5217789;28;20029;-81
2021/07/23 06:24:00;;;;;;;15.68;9.07;;;;;;;23.47;86.77;101927.13;5212006;28;20079;-81
2021/07/23 06:26:31;;;;;;;15.77;8.57;;;;;;;22.88;99.56;101926.56;5212161;28;20025;-82
2021/07/23 06:29:01;;;;;;;16.38;8.85;;;;;;;23.43;85.54;101926.72;5215178;28;20021;-81
2021/07/23 06:31:34;;;;;;;16.05;8.75;;;;;;;23.07;94.59;101927.47;5217734;28;20037;-81
2021/07/23 06:34:04;;;;;;;13.05;8.38;;;;;;;22.96;100.00;101923.56;5197732;28;20108;-81
2021/07/23 06:36:35;;;;;;;15.90;9.10;;;;;;;22.84;98.60;101922.59;5211838;28;20162;-81
2021/07/23 06:39:05;;;;;;;29.98;9.70;;;;;;;22.36;100.00;101928.56;5212105;28;20114;-81
2021/07/23 06:41:36;;;;;;;13.68;8.48;;;;;;;22.47;100.00;101929.75;5200024;28;20447;-81
2021/07/23 06:44:06;;;;;;;15.25;8.35;;;;;;;22.54;100.00;101924.22;5217283;28;20017;-81
2021/07/23 06:46:37;;;;;;;18.52;9.20;;;;;;;22.08;100.00;101934.31;5217244;28;20071;-81
2021/07/23 06:49:07;;;;;;;15.05;8.75;;;;;;;21.59;100.00;101926.72;5198856;28;20024;-81
2021/07/23 06:51:37;;;;;;;17.15;9.43;;;;;;;21.06;100.00;101916.63;5170340;28;20041;-81
2021/07/23 06:54:08;;;;;;;16.17;8.75;;;;;;;20.64;100.00;101915.13;5217182;28;20104;-81
2021/07/23 06:56:38;;;;;;;18.85;8.75;;;;;;;20.23;100.00;101929.69;5189143;28;20068;-81
2021/07/23 06:59:09;;;;;;;16.65;9.68;;;;;;;19.76;100.00;101920.44;5216500;28;20053;-81
2021/07/23 07:01:39;;;;;;;13.88;9.18;;;;;;;19.31;100.00;101928.06;5214789;28;20060;-81
2021/07/23 07:04:10;;;;;;;18.52;10.20;;;;;;;19.19;100.00;101926.09;5224479;28;20027;-81
2021/07/23 07:06:40;;;;;;;23.13;9.75;;;;;;;19.13;100.00;101922.28;5191787;28;20036;-81
2021/07/23 07:09:11;;;;;;;17.48;9.48;;;;;;;19.22;100.00;101929.22;5216282;28;20017;-81
2021/07/23 07:11:41;;;;;;;17.33;10.20;;;;;;;19.10;100.00;101930.81;5217086;28;20032;-81
2021/07/23 07:14:11;;;;;;;19.27;10.63;;;;;;;19.29;100.00;101930.16;5211061;28;20428;-81
2021/07/23 07:16:42;;;;;;;17.13;9.68;;;;;;;19.25;100.00;101934.28;5210663;28;20033;-82
2021/07/23 07:19:13;;;;;;;17.60;9.40;;;;;;;19.13;100.00;101928.56;5196923;28;20017;-81
2021/07/23 07:21:48;;;;;;;16.27;9.98;;;;;;;19.19;100.00;101926.94;5217097;28;20049;-81
2021/07/23 07:24:19;;;;;;;19.15;10.48;;;;;;;19.23;100.00;101930.06;5196202;28;20269;-82
2021/07/23 07:26:50;;;;;;;19.30;11.10;;;;;;;19.26;100.00;101921.53;5210814;28;20126;-81
2021/07/23 07:29:20;;;;;;;17.67;9.68;;;;;;;19.46;100.00;101918.97;5211681;28;20388;-81
2021/07/23 07:31:51;;;;;;;22.10;10.48;;;;;;;19.32;100.00;101913.41;5185640;28;20029;-81
2021/07/23 07:34:21;;;;;;;17.30;10.45;;;;;;;19.22;100.00;101917.50;5216211;28;20038;-81
2021/07/23 07:36:51;;;;;;;22.20;14.02;;;;;;;19.44;100.00;101910.16;5209610;28;20079;-81
2021/07/23 07:39:22;;;;;;;18.77;9.85;;;;;;;19.39;100.00;101898.00;5191622;28;20029;-81
2021/07/23 07:41:52;;;;;;;21.00;10.18;;;;;;;19.45;100.00;101893.63;5216354;28;20084;-81
2021/07/23 07:44:23;;;;;;;20.95;10.13;;;;;;;19.52;100.00;101889.06;5215752;28;20097;-82
2021/07/23 07:46:53;;;;;;;16.73;8.93;;;;;;;19.59;100.00;101880.94;5212063;28;20033;-81
2021/07/23 07:49:24;;;;;;;17.35;9.45;;;;;;;19.65;100.00;101886.44;5191445;28;20033;-81
2021/07/23 07:51:54;;;;;;;17.13;9.15;;;;;;;19.72;100.00;101883.75;5214017;28;20392;-81
2021/07/23 07:54:25;;;;;;;16.38;9.77;;;;;;;19.70;100.00;101880.41;5216371;28;20029;-81
2021/07/23 07:56:57;;;;;;;21.05;10.57;;;;;;;19.74;100.00;101884.41;5204545;28;20029;-81
2021/07/23 07:59:28;;;;;;;17.23;9.05;;;;;;;19.82;100.00;101877.94;5197335;28;20021;-81
2021/07/23 08:01:58;;;;;;;18.60;9.05;;;;;;;20.03;100.00;101876.97;5215419;28;20051;-81
2021/07/23 08:04:29;;;;;;;17.08;8.60;;;;;;;20.11;100.00;101871.34;5216710;28;20029;-81
2021/07/23 08:07:00;;;;;;;17.05;9.75;;;;;;;20.14;100.00;101865.50;5204551;28;20488;-81
2021/07/23 08:09:36;;;;;;;17.52;8.70;;;;;;;20.27;100.00;101860.06;5213337;28;20032;-82
2021/07/23 08:12:06;;;;;;;17.20;8.35;;;;;;;20.40;100.00;101854.66;5198349;28;20017;-82
2021/07/23 08:14:37;;;;;;;17.33;9.10;;;;;;;20.56;100.00;101848.00;5213471;28;20036;-82
2021/07/23 08:17:07;;;;;;;12.20;8.13;;;;;;;20.59;100.00;101844.88;5209916;28;20025;-81
2021/07/23 08:19:38;;;;;;;14.27;8.43;;;;;;;20.59;100.00;101854.94;5209521;28;20021;-81
2021/07/23 08:22:08;;;;;;;13.07;8.15;;;;;;;20.54;100.00;101858.28;5215788;28;20479;-82
2021/07/23 08:24:39;;;;;;;14.13;7.70;;;;;;;20.65;100.00;101856.84;5215778;28;20067;-81
2021/07/23 08:27:09;;;;;;;12.80;7.57;;;;;;;20.90;100.00;101859.78;5210372;28;20480;-81
2021/07/23 08:29:40;;;;;;;16.52;8.73;;;;;;;21.17;100.00;101860.59;5208804;28;20100;-81
2021/07/23 08:32:12;;;;;;;16.42;8.30;;;;;;;21.18;100.00;101865.00;5196383;28;20033;-81
2021/07/23 08:34:42;;;;;;;15.00;8.75;;;;;;;21.12;100.00;101860.38;5215652;28;20040;-81
2021/07/23 08:37:13;;;;;;;16.45;9.00;;;;;;;21.21;100.00;101861.84;5212663;28;20016;-81
2021/07/23 08:39:43;;;;;;;13.52;8.45;;;;;;;21.16;100.00;101857.03;5208385;28;20216;-81
2021/07/23 08:42:29;;;;;;;17.42;7.60;;;;;;;21.27;100.00;101847.34;5212208;28;20032;-82
2021/07/23 08:45:02;;;;;;;16.42;6.93;;;;;;;21.20;100.00;101849.25;5208910;28;20048;-81
2021/07/23 08:47:35;;;;;;;14.38;8.27;;;;;;;21.30;100.00;101851.56;5209181;28;20369;-81
2021/07/23 08:50:06;;;;;;;12.90;7.90;;;;;;;21.43;100.00;101846.06;5212861;28;20441;-82
2021/07/23 08:52:44;;;;;;;14.25;8.13;;;;;;;21.31;100.00;101848.63;5215663;28;20065;-81
2021/07/23 08:55:16;;;;;;;13.95;7.90;;;;;;;21.36;100.00;101853.47;5213377;28;20422;-81
2021/07/23 08:57:47;;;;;;;15.35;7.65;;;;;;;21.42;100.00;101847.13;5209343;28;20507;-81
2021/07/23 09:00:19;;;;;;;12.05;7.40;;;;;;;21.65;100.00;101843.94;5208744;28;20056;-82
2021/07/23 09:02:59;;;;;;;20.02;7.43;;;;;;;21.79;100.00;101831.91;5222771;28;20438;-81
2021/07/23 09:05:41;;;;;;;13.13;7.65;;;;;;;21.97;100.00;101831.19;5219750;28;20031;-81
2021/07/23 09:08:14;;;;;;;14.32;7.28;;;;;;;22.36;100.00;101824.66;5195324;28;20036;-82
2021/07/23 09:10:46;;;;;;;12.20;6.20;;;;;;;22.38;100.00;101828.00;5220031;28;20041;-82
2021/07/23 09:13:22;;;;;;;20.75;7.25;;;;;;;22.47;100.00;101832.16;5208853;28;20025;-82
2021/07/23 09:15:53;;;;;;;13.68;6.45;;;;;;;22.60;100.00;101816.72;5184451;28;20021;-82
2021/07/23 09:18:35;;;;;;;12.77;6.25;;;;;;;22.61;100.00;101819.22;5215580;28;20438;-82
2021/07/23 09:21:06;;;;;;;11.65;6.75;;;;;;;22.53;100.00;101821.38;5193511;28;20108;-82
2021/07/23 09:23:38;;;;;;;14.43;6.97;;;;;;;22.36;100.00;101811.00;5208744;28;20028;-82
2021/07/23 09:26:10;;;;;;;12.70;6.80;;;;;;;22.52;100.00;101812.34;5193284;28;20043;-81
2021/07/23 09:28:41;;;;;;;15.27;7.47;;;;;;;22.63;100.00;101810.78;5215278;28;20029;-81
2021/07/23 09:31:22;;;;;;;14.73;7.35;;;;;;;22.86;100.00;101811.03;5213951;28;20036;-81
2021/07/23 09:33:55;;;;;;;20.98;7.25;;;;;;;22.84;100.00;101818.63;5193266;28;20071;-82
2021/07/23 09:36:26;;;;;;;11.52;6.68;;;;;;;22.98;100.00;101820.19;5209175;28;20043;-81
2021/07/23 09:39:03;;;;;;;14.60;6.72;;;;;;;23.21;99.24;101824.19;5211402;28;20021;-82
2021/07/23 09:41:34;;;;;;;8.70;6.32;;;;;;;23.41;100.00;101813.84;5215335;28;20519;-81
2021/07/23 09:44:07;;;;;;;13.52;7.07;;;;;;;23.56;99.24;101813.47;5213637;28;20032;-82
2021/07/23 09:46:42;;;;;;;13.90;7.00;;;;;;;23.62;100.00;101808.97;5215787;28;20570;-82
2021/07/23 09:49:24;;;;;;;10.32;6.28;;;;;;;23.70;85.58;101805.97;5196121;28;20028;-82
2021/07/23 09:51:57;;;;;;;11.63;6.60;;;;;;;23.71;93.61;101802.97;5211740;28;20029;-81
2021/07/23 09:54:28;;;;;;;13.52;7.05;;;;;;;23.76;88.25;101803.13;5208952;28;20031;-82
2021/07/23 09:57:03;;;;;;;12.98;6.90;;;;;;;23.76;99.12;101792.16;5210379;28;20484;-82
2021/07/23 09:59:48;;;;;;;11.52;6.80;;;;;;;23.77;88.09;101782.03;5215878;28;20346;-82
2021/07/23 10:02:22;;;;;;;12.40;7.77;;;;;;;23.69;93.21;101780.44;5220594;28;20048;-82
2021/07/23 10:05:01;;;;;;;15.43;8.43;;;;;;;23.62;90.89;101778.84;5225913;28;20021;-82
2021/07/23 10:07:40;;;;;;;11.75;6.70;;;;;;;23.95;86.59;101767.47;5210952;28;20036;-82
2021/07/23 10:10:13;;;;;;;12.65;7.60;;;;;;;23.80;83.63;101769.78;5193110;28;20396;-82
2021/07/23 10:12:44;;;;;;;13.23;7.70;;;;;;;23.73;98.86;101764.38;5217002;28;20029;-81
2021/07/23 10:15:15;;;;;;;12.90;7.53;;;;;;;23.88;85.08;101759.31;5218704;28;20017;-81
2021/07/23 10:17:47;;;;;;;14.63;7.55;;;;;;;23.82;84.29;101757.53;5214849;28;20131;-82
2021/07/23 10:20:19;;;;;;;13.95;7.18;;;;;;;23.87;88.32;101748.63;5210927;28;20036;-82
2021/07/23 10:22:51;;;;;;;12.32;7.60;;;;;;;23.97;95.64;101744.22;5213915;28;20029;-82
2021/07/23 10:25:24;;;;;;;12.80;7.13;;;;;;;24.14;91.14;101749.03;5218568;28;20017;-82
2021/07/23 10:27:55;;;;;;;17.45;7.47;;;;;;;24.15;84.55;101743.34;5217909;28;20017;-82
2021/07/23 10:30:30;;;;;;;10.90;7.00;;;;;;;24.02;80.69;101736.16;5210525;28;20479;-81
2021/07/23 10:33:02;;;;;;;17.90;7.95;;;;;;;24.15;95.33;101723.31;5193710;28;20325;-81
2021/07/23 10:35:34;;;;;;;14.23;7.57;;;;;;;24.19;85.33;101729.97;5217121;28;20115;-82
2021/07/23 10:38:05;;;;;;;14.98;7.50;;;;;;;24.21;94.34;101728.69;5218118;28;20159;-82
2021/07/23 10:40:40;;;;;;;12.05;6.95;;;;;;;24.36;86.63;101724.69;5186172;28;20412;-82
2021/07/23 10:43:36;;;;;;;17.33;8.00;;;;;;;24.43;86.34;101717.19;5217168;28;20025;-82
2021/07/23 10:46:07;;;;;;;12.30;6.90;;;;;;;24.61;82.96;101717.06;5218219;28;20078;-82
2021/07/23 10:48:47;;;;;;;16.15;7.03;;;;;;;24.54;72.93;101716.34;5196235;28;20025;-82
2021/07/23 10:51:50;;;;;;;11.27;7.22;;;;;;;24.46;76.25;101703.00;5192693;28;20075;-82
2021/07/23 10:54:22;;;;;;;13.32;7.30;;;;;;;24.49;81.26;101699.75;5208820;28;20057;-82
2021/07/23 10:56:56;;;;;;;14.15;7.10;;;;;;;24.62;78.81;101698.69;5188018;28;20060;-82
2021/07/23 10:59:39;;;;;;;11.15;7.68;;;;;;;24.73;72.54;101700.59;5198944;28;20026;-82
2021/07/23 11:02:10;;;;;;;13.00;5.85;;;;;;;24.83;76.71;101695.34;5217372;28;20033;-82
2021/07/23 11:04:43;;;;;;;12.85;7.18;;;;;;;25.05;72.06;101690.03;5211643;28;20483;-82
2021/07/23 11:07:15;;;;;;;10.43;6.72;;;;;;;25.01;63.85;101678.72;5208598;28;20029;-82
2021/07/23 11:09:45;;;;;;;10.98;7.35;;;;;;;24.80;74.29;101682.94;5212238;28;20031;-82
2021/07/23 11:12:18;;;;;;;17.42;7.60;;;;;;;24.91;68.44;101683.16;5216223;28;20026;-82
2021/07/23 11:14:51;;;;;;;15.20;6.85;;;;;;;24.79;69.91;101683.16;5216257;28;20057;-81
2021/07/23 11:17:22;;;;;;;15.52;6.78;;;;;;;24.86;70.05;101686.63;5211402;28;20317;-82
2021/07/23 11:19:58;;;;;;;10.77;6.72;;;;;;;24.68;67.03;101679.38;5210023;28;20488;-82
2021/07/23 11:22:32;;;;;;;9.63;6.80;;;;;;;24.55;66.29;101671.41;5198628;28;20025;-82
2021/07/23 11:25:07;;;;;;;12.10;6.80;;;;;;;24.60;67.91;101676.16;5216868;28;20024;-82
2021/07/23 11:27:39;;;;;;;12.23;6.90;;;;;;;24.68;86.71;101678.53;5215211;28;20025;-82
2021/07/23 11:30:23;;;;;;;10.30;5.93;;;;;;;24.84;88.54;101671.47;5192413;28;20025;-81